Time;durP1;ratioP1;P1;durP2;ratioP2;P2;SDS_P1;SDS_P2;PMS_P1;PMS_P2;Temp;Humidity;BMP_temperature;BMP_pressure;BME280_temperature;BME280_humidity;BME280_pressure;Samples;Min_cycle;Max_cycle;Signal;HPM_P1;HPM_P2
2021/04/30 00:01:11;;;;;;;11.63;2.17;;;;;;;;;;4958457;28;20105;-67
2021/04/30 00:03:38;;;;;;;14.02;3.20;;;;;;;;;;4978729;28;20030;-67
2021/04/30 00:06:05;;;;;;;15.57;2.60;;;;;;;;;;4980918;28;20073;-68
2021/04/30 00:08:33;;;;;;;16.83;2.50;;;;;;;;;;4983904;28;20081;-70
2021/04/30 00:11:00;;;;;;;10.48;2.33;;;;;;;;;;4992204;28;20023;-70
2021/04/30 00:13:27;;;;;;;9.40;2.33;;;;;;;;;;4976026;28;20226;-70
2021/04/30 00:15:54;;;;;;;6.32;2.20;;;;;;;;;;4992847;28;20114;-68
2021/04/30 00:18:22;;;;;;;10.45;2.47;;;;;;;;;;4993457;28;20371;-66
2021/04/30 00:20:56;;;;;;;15.18;2.35;;;;;;;;;;4993244;28;20029;-68
2021/04/30 00:23:27;;;;;;;7.50;1.75;;;;;;;;;;4993465;28;20471;-68
2021/04/30 00:25:55;;;;;;;7.57;2.30;;;;;;;;;;4988944;28;20019;-67
2021/04/30 00:28:22;;;;;;;12.30;2.38;;;;;;;;;;4976323;28;20085;-66
2021/04/30 00:30:50;;;;;;;6.45;2.00;;;;;;;;;;4992505;28;20026;-67
2021/04/30 00:33:17;;;;;;;7.95;2.35;;;;;;;;;;4993733;28;20494;-71
2021/04/30 00:35:45;;;;;;;6.05;1.98;;;;;;;;;;4993011;28;20583;-70
2021/04/30 00:38:12;;;;;;;31.88;2.53;;;;;;;;;;4987441;28;20031;-68
2021/04/30 00:40:39;;;;;;;9.25;1.98;;;;;;;;;;4985545;28;20022;-67
2021/04/30 00:43:07;;;;;;;8.88;2.17;;;;;;;;;;4974733;28;20037;-69
2021/04/30 00:45:34;;;;;;;13.38;2.28;;;;;;;;;;4992659;28;20053;-70
2021/04/30 00:48:01;;;;;;;13.50;2.33;;;;;;;;;;4992816;28;20385;-67
2021/04/30 00:50:29;;;;;;;12.00;2.42;;;;;;;;;;4993063;28;20121;-70
2021/04/30 00:52:56;;;;;;;15.75;2.30;;;;;;;;;;4992266;28;20436;-66
2021/04/30 00:55:23;;;;;;;44.03;3.13;;;;;;;;;;4993118;28;20018;-69
2021/04/30 00:58:01;;;;;;;16.08;2.60;;;;;;;;;;4987237;28;20030;-70
2021/04/30 01:00:29;;;;;;;11.77;3.03;;;;;;;;;;4990289;28;20034;-69
2021/04/30 01:02:56;;;;;;;14.32;2.70;;;;;;;;;;4986887;28;20027;-69
2021/04/30 01:05:24;;;;;;;18.13;3.75;;;;;;;;;;4993166;28;20467;-70
2021/04/30 01:07:51;;;;;;;24.17;3.65;;;;;;;;;;4992612;28;20582;-69
2021/04/30 01:10:19;;;;;;;15.45;3.35;;;;;;;;;;4991277;28;20057;-70
2021/04/30 01:12:46;;;;;;;11.88;3.70;;;;;;;;;;4974282;28;20018;-69
2021/04/30 01:15:14;;;;;;;21.83;3.50;;;;;;;;;;4982236;28;20019;-68
2021/04/30 01:17:41;;;;;;;18.88;3.33;;;;;;;;;;4992569;28;20479;-70
2021/04/30 01:20:09;;;;;;;19.48;3.90;;;;;;;;;;4993415;28;20032;-71
2021/04/30 01:22:40;;;;;;;12.43;3.25;;;;;;;;;;4992951;28;20026;-70
2021/04/30 01:25:09;;;;;;;12.90;3.45;;;;;;;;;;4993069;28;20478;-69
2021/04/30 01:27:37;;;;;;;27.35;3.58;;;;;;;;;;4971377;28;20026;-68
2021/04/30 01:30:06;;;;;;;18.25;4.00;;;;;;;;;;4992962;28;20554;-69
2021/04/30 01:32:33;;;;;;;14.57;3.17;;;;;;;;;;4992749;28;20066;-69
2021/04/30 01:35:00;;;;;;;20.27;3.35;;;;;;;;;;4975553;28;20026;-70
2021/04/30 01:37:27;;;;;;;13.93;3.03;;;;;;;;;;4988725;28;20554;-69
2021/04/30 01:39:54;;;;;;;14.73;2.90;;;;;;;;;;4992332;28;20077;-70
2021/04/30 01:42:22;;;;;;;13.73;2.60;;;;;;;;;;4983694;28;20027;-69
2021/04/30 01:44:49;;;;;;;13.90;3.00;;;;;;;;;;4982717;28;20038;-70
2021/04/30 01:47:17;;;;;;;14.40;3.10;;;;;;;;;;4992403;28;20034;-69
2021/04/30 01:49:44;;;;;;;12.43;3.20;;;;;;;;;;4991979;28;20030;-69
2021/04/30 01:52:12;;;;;;;19.60;2.97;;;;;;;;;;4983885;28;20117;-69
2021/04/30 01:54:39;;;;;;;16.70;3.42;;;;;;;;;;4969982;28;20081;-69
2021/04/30 01:57:06;;;;;;;18.75;2.90;;;;;;;;;;4981046;28;20038;-70
2021/04/30 01:59:33;;;;;;;12.25;3.08;;;;;;;;;;4972869;28;20033;-70
2021/04/30 02:02:00;;;;;;;14.13;2.80;;;;;;;;;;4981316;28;20030;-70
2021/04/30 02:04:27;;;;;;;15.45;2.65;;;;;;;;;;4972397;28;20555;-70
2021/04/30 02:06:54;;;;;;;33.22;3.67;;;;;;;;;;4988346;28;20041;-72
2021/04/30 02:09:21;;;;;;;22.80;3.20;;;;;;;;;;4978698;28;20037;-70
2021/04/30 02:11:48;;;;;;;30.67;3.20;;;;;;;;;;4984233;28;20478;-66
2021/04/30 02:14:16;;;;;;;23.58;2.55;;;;;;;;;;4989999;28;20019;-64
2021/04/30 02:16:43;;;;;;;17.85;2.67;;;;;;;;;;4992609;28;20042;-61
2021/04/30 02:19:10;;;;;;;23.02;3.33;;;;;;;;;;4992041;28;20117;-62
2021/04/30 02:21:37;;;;;;;14.77;2.58;;;;;;;;;;4973891;28;20023;-62
2021/04/30 02:24:04;;;;;;;14.43;2.83;;;;;;;;;;4991586;28;20029;-61
2021/04/30 02:26:31;;;;;;;8.13;2.58;;;;;;;;;;4992002;28;20381;-61
2021/04/30 02:28:58;;;;;;;7.80;2.50;;;;;;;;;;4990553;28;20042;-62
2021/04/30 02:31:25;;;;;;;9.02;2.65;;;;;;;;;;4992525;28;20025;-63
2021/04/30 02:33:52;;;;;;;16.17;2.33;;;;;;;;;;4992133;28;20426;-62
2021/04/30 02:36:19;;;;;;;8.20;2.38;;;;;;;;;;4992147;28;20026;-61
2021/04/30 02:38:46;;;;;;;9.15;2.22;;;;;;;;;;4992415;28;20019;-63
2021/04/30 02:41:13;;;;;;;9.95;2.40;;;;;;;;;;4992538;28;20394;-62
2021/04/30 02:43:40;;;;;;;9.35;2.38;;;;;;;;;;4992550;28;20050;-62
2021/04/30 02:46:10;;;;;;;7.30;2.30;;;;;;;;;;4992981;28;20019;-62
2021/04/30 02:48:40;;;;;;;10.02;2.50;;;;;;;;;;4975977;28;20022;-62
2021/04/30 02:51:11;;;;;;;9.23;2.25;;;;;;;;;;4992531;28;20057;-62
2021/04/30 02:53:38;;;;;;;9.67;2.27;;;;;;;;;;4992864;28;20061;-62
2021/04/30 02:56:05;;;;;;;7.70;2.25;;;;;;;;;;4975159;28;20297;-63
2021/04/30 02:58:32;;;;;;;11.70;2.10;;;;;;;;;;4992623;28;20029;-62
2021/04/30 03:01:00;;;;;;;6.68;2.47;;;;;;;;;;4992812;28;20030;-62
2021/04/30 03:03:27;;;;;;;8.13;2.30;;;;;;;;;;4992653;28;20025;-61
2021/04/30 03:05:54;;;;;;;11.25;2.60;;;;;;;;;;4992577;28;20027;-61
2021/04/30 03:08:21;;;;;;;10.95;2.63;;;;;;;;;;4992876;28;20022;-62
2021/04/30 03:10:48;;;;;;;13.25;2.38;;;;;;;;;;4987577;28;20034;-62
2021/04/30 03:13:15;;;;;;;10.25;2.40;;;;;;;;;;4976215;28;20090;-62
2021/04/30 03:15:42;;;;;;;9.10;2.15;;;;;;;;;;4972653;28;20034;-62
2021/04/30 03:18:10;;;;;;;8.40;2.10;;;;;;;;;;4972406;28;20034;-62
2021/04/30 03:20:37;;;;;;;4.53;2.28;;;;;;;;;;4972763;28;20031;-61
2021/04/30 03:23:04;;;;;;;9.90;2.00;;;;;;;;;;4972857;28;20057;-62
2021/04/30 03:25:31;;;;;;;11.60;1.90;;;;;;;;;;4972468;28;20027;-62
2021/04/30 03:27:58;;;;;;;6.05;2.05;;;;;;;;;;4972542;28;20090;-62
2021/04/30 03:30:25;;;;;;;6.00;1.95;;;;;;;;;;4973005;28;20049;-62
2021/04/30 03:32:52;;;;;;;6.00;2.15;;;;;;;;;;4975758;28;20038;-62
2021/04/30 03:35:20;;;;;;;4.47;2.03;;;;;;;;;;4976438;28;20035;-61
2021/04/30 03:37:47;;;;;;;4.53;1.98;;;;;;;;;;4976452;28;20026;-61
2021/04/30 03:40:15;;;;;;;9.18;2.08;;;;;;;;;;4976764;28;20027;-62
2021/04/30 03:42:42;;;;;;;9.30;1.95;;;;;;;;;;4976468;28;20080;-61
2021/04/30 03:45:09;;;;;;;6.97;2.03;;;;;;;;;;4977993;28;20111;-61
2021/04/30 03:47:36;;;;;;;9.20;2.05;;;;;;;;;;4995921;28;20015;-61
2021/04/30 03:50:03;;;;;;;4.00;1.75;;;;;;;;;;4995612;28;20379;-62
2021/04/30 03:52:31;;;;;;;8.85;2.13;;;;;;;;;;4995819;28;20034;-62
2021/04/30 03:54:58;;;;;;;5.88;1.75;;;;;;;;;;4995843;28;20026;-61
2021/04/30 03:57:25;;;;;;;6.82;1.92;;;;;;;;;;4995709;28;20398;-61
2021/04/30 03:59:52;;;;;;;8.65;2.10;;;;;;;;;;4995620;28;20022;-62
2021/04/30 04:02:19;;;;;;;6.00;1.90;;;;;;;;;;4995563;28;20371;-61
2021/04/30 04:04:46;;;;;;;5.65;1.90;;;;;;;;;;4995589;28;20029;-61
2021/04/30 04:07:13;;;;;;;5.70;2.00;;;;;;;;;;4995463;28;20525;-62
2021/04/30 04:09:40;;;;;;;5.78;2.10;;;;;;;;;;4995783;28;20359;-61
2021/04/30 04:12:08;;;;;;;4.93;1.98;;;;;;;;;;4995559;28;20023;-61
2021/04/30 04:14:35;;;;;;;4.72;2.08;;;;;;;;;;4995327;28;20019;-61
2021/04/30 04:17:02;;;;;;;3.65;1.58;;;;;;;;;;4995456;28;20072;-61
2021/04/30 04:19:29;;;;;;;5.43;1.95;;;;;;;;;;4995278;28;20032;-61
2021/04/30 04:21:56;;;;;;;8.02;2.08;;;;;;;;;;4978181;28;20022;-61
2021/04/30 04:24:23;;;;;;;4.13;1.63;;;;;;;;;;4995192;28;20077;-61
2021/04/30 04:26:50;;;;;;;6.25;1.70;;;;;;;;;;4995185;28;20105;-61
2021/04/30 04:29:17;;;;;;;11.95;1.98;;;;;;;;;;4995065;28;20054;-61
2021/04/30 04:31:44;;;;;;;4.53;1.42;;;;;;;;;;4995081;28;20088;-61
2021/04/30 04:34:11;;;;;;;5.05;1.95;;;;;;;;;;4994941;28;20450;-61
2021/04/30 04:36:38;;;;;;;7.80;2.05;;;;;;;;;;4994996;28;20122;-61
2021/04/30 04:39:05;;;;;;;5.22;1.60;;;;;;;;;;4995123;28;20015;-62
2021/04/30 04:41:32;;;;;;;7.90;1.80;;;;;;;;;;4994938;28;20027;-61
2021/04/30 04:43:59;;;;;;;5.40;2.00;;;;;;;;;;4994102;28;20030;-61
2021/04/30 04:46:26;;;;;;;6.57;1.55;;;;;;;;;;4994805;28;20508;-61
2021/04/30 04:48:53;;;;;;;5.43;1.83;;;;;;;;;;4994877;28;20026;-61
2021/04/30 04:51:21;;;;;;;6.47;1.80;;;;;;;;;;4994511;28;20046;-62
2021/04/30 04:53:47;;;;;;;3.45;1.85;;;;;;;;;;4994632;28;20077;-61
2021/04/30 04:56:15;;;;;;;5.95;1.98;;;;;;;;;;4994762;28;20132;-61
2021/04/30 04:58:42;;;;;;;6.05;2.10;;;;;;;;;;4994559;28;20019;-61
2021/04/30 05:01:09;;;;;;;5.15;1.52;;;;;;;;;;4994508;28;20030;-61
2021/04/30 05:03:36;;;;;;;6.43;1.85;;;;;;;;;;4994632;28;20032;-61
2021/04/30 05:06:04;;;;;;;4.13;1.55;;;;;;;;;;4994425;28;20030;-62
2021/04/30 05:08:31;;;;;;;4.30;1.67;;;;;;;;;;4986364;28;20029;-61
2021/04/30 05:10:58;;;;;;;7.35;1.83;;;;;;;;;;4994467;28;20027;-62
2021/04/30 05:13:25;;;;;;;8.90;1.60;;;;;;;;;;4994369;28;20522;-62
2021/04/30 05:15:52;;;;;;;4.93;1.60;;;;;;;;;;4994138;28;20026;-61
2021/04/30 05:18:19;;;;;;;6.30;1.70;;;;;;;;;;4994312;28;20031;-61
2021/04/30 05:20:46;;;;;;;5.65;1.90;;;;;;;;;;4994303;28;20025;-61
2021/04/30 05:23:13;;;;;;;6.90;1.50;;;;;;;;;;4976957;28;20026;-61
2021/04/30 05:25:41;;;;;;;5.18;1.52;;;;;;;;;;4994350;28;20387;-61
2021/04/30 05:28:08;;;;;;;7.00;1.58;;;;;;;;;;4993997;28;20093;-60
2021/04/30 05:30:35;;;;;;;4.80;1.45;;;;;;;;;;4993770;28;20026;-61
2021/04/30 05:33:02;;;;;;;3.15;1.50;;;;;;;;;;4994174;28;20018;-61
2021/04/30 05:35:29;;;;;;;3.92;1.67;;;;;;;;;;4993668;28;20026;-61
2021/04/30 05:37:57;;;;;;;4.93;1.70;;;;;;;;;;4993834;28;20061;-61
2021/04/30 05:40:24;;;;;;;3.53;1.60;;;;;;;;;;4993912;28;20018;-62
2021/04/30 05:42:51;;;;;;;7.03;1.65;;;;;;;;;;4993762;28;20033;-62
2021/04/30 05:45:18;;;;;;;4.25;1.42;;;;;;;;;;4993545;28;20509;-62
2021/04/30 05:47:46;;;;;;;3.50;1.65;;;;;;;;;;4993785;28;20098;-61
2021/04/30 05:50:14;;;;;;;4.72;1.80;;;;;;;;;;4993462;28;20449;-62
2021/04/30 05:52:41;;;;;;;4.90;1.40;;;;;;;;;;4993643;28;20088;-61
2021/04/30 05:55:09;;;;;;;4.80;1.65;;;;;;;;;;4993612;28;20118;-61
2021/04/30 05:57:36;;;;;;;4.68;1.50;;;;;;;;;;4993447;28;20066;-61
2021/04/30 06:00:04;;;;;;;5.05;1.60;;;;;;;;;;4993234;28;20030;-61
2021/04/30 06:02:31;;;;;;;4.38;1.67;;;;;;;;;;4993453;28;20033;-61
2021/04/30 06:04:58;;;;;;;7.28;1.45;;;;;;;;;;4993334;28;20077;-61
2021/04/30 06:07:25;;;;;;;5.00;1.48;;;;;;;;;;4993349;28;20061;-61
2021/04/30 06:09:52;;;;;;;3.95;1.52;;;;;;;;;;4993496;28;20022;-60
2021/04/30 06:12:20;;;;;;;5.32;1.92;;;;;;;;;;4993241;28;20430;-61
2021/04/30 06:14:47;;;;;;;4.72;1.33;;;;;;;;;;4993008;28;20042;-61
2021/04/30 06:17:14;;;;;;;3.33;1.58;;;;;;;;;;4993367;28;20050;-61
2021/04/30 06:19:41;;;;;;;3.55;1.48;;;;;;;;;;4993265;28;20019;-61
2021/04/30 06:22:08;;;;;;;5.13;1.40;;;;;;;;;;4993208;28;20041;-61
2021/04/30 06:24:35;;;;;;;3.25;1.55;;;;;;;;;;4992980;28;20026;-61
2021/04/30 06:27:02;;;;;;;6.22;1.83;;;;;;;;;;4993248;28;20037;-61
2021/04/30 06:29:29;;;;;;;4.40;1.95;;;;;;;;;;4992736;28;20386;-61
2021/04/30 06:31:59;;;;;;;2.97;1.40;;;;;;;;;;4993039;28;20026;-61
2021/04/30 06:34:27;;;;;;;3.03;1.20;;;;;;;;;;4993056;28;20105;-62
2021/04/30 06:36:54;;;;;;;2.80;1.20;;;;;;;;;;4992904;28;20030;-61
2021/04/30 06:39:21;;;;;;;6.63;1.40;;;;;;;;;;4975537;28;20387;-61
2021/04/30 06:41:48;;;;;;;3.17;1.33;;;;;;;;;;4993136;28;20084;-61
2021/04/30 06:44:15;;;;;;;3.03;1.48;;;;;;;;;;4992826;28;20030;-61
2021/04/30 06:46:42;;;;;;;4.60;1.45;;;;;;;;;;4992955;28;20031;-61
2021/04/30 06:49:10;;;;;;;4.13;1.50;;;;;;;;;;4975388;28;20028;-61
2021/04/30 06:51:37;;;;;;;3.92;1.40;;;;;;;;;;4975155;28;20047;-61
2021/04/30 06:54:04;;;;;;;5.22;1.42;;;;;;;;;;4992816;28;20026;-62
2021/04/30 06:56:31;;;;;;;5.18;1.30;;;;;;;;;;4992884;28;20026;-61
2021/04/30 06:58:58;;;;;;;6.18;1.30;;;;;;;;;;4992642;28;20076;-61
2021/04/30 07:01:26;;;;;;;5.20;1.40;;;;;;;;;;4992595;28;20029;-61
2021/04/30 07:03:53;;;;;;;3.38;1.30;;;;;;;;;;4992890;28;20445;-61
2021/04/30 07:06:20;;;;;;;2.60;1.30;;;;;;;;;;4975996;28;20022;-62
2021/04/30 07:08:49;;;;;;;4.18;1.38;;;;;;;;;;4996468;28;20045;-62
2021/04/30 07:11:17;;;;;;;2.15;1.05;;;;;;;;;;4996670;28;20026;-61
2021/04/30 07:13:44;;;;;;;3.92;1.33;;;;;;;;;;4996503;28;20495;-61
2021/04/30 07:16:11;;;;;;;4.45;1.55;;;;;;;;;;4996440;28;20145;-60
2021/04/30 07:18:38;;;;;;;5.25;1.85;;;;;;;;;;4996645;28;20104;-61
2021/04/30 07:21:05;;;;;;;1.98;1.08;;;;;;;;;;4996376;28;20052;-61
2021/04/30 07:23:35;;;;;;;2.88;1.00;;;;;;;;;;4996315;28;20023;-62
2021/04/30 07:26:03;;;;;;;5.18;1.55;;;;;;;;;;4978662;28;20053;-61
2021/04/30 07:28:30;;;;;;;3.70;1.15;;;;;;;;;;4988525;28;20109;-61
2021/04/30 07:30:58;;;;;;;4.68;1.33;;;;;;;;;;4996232;28;20042;-62
2021/04/30 07:33:25;;;;;;;3.17;1.20;;;;;;;;;;4996052;28;20030;-61
2021/04/30 07:35:52;;;;;;;3.78;1.25;;;;;;;;;;4996220;28;20050;-60
2021/04/30 07:38:19;;;;;;;3.92;1.23;;;;;;;;;;4996090;28;20041;-61
2021/04/30 07:40:46;;;;;;;3.65;1.20;;;;;;;;;;4995720;28;20061;-62
2021/04/30 07:43:14;;;;;;;4.30;1.30;;;;;;;;;;4996142;28;20101;-62
2021/04/30 07:45:43;;;;;;;3.08;1.25;;;;;;;;;;4995929;28;20050;-62
2021/04/30 07:48:10;;;;;;;2.17;1.05;;;;;;;;;;4995861;28;20091;-61
2021/04/30 07:50:38;;;;;;;3.40;1.40;;;;;;;;;;4995864;28;20038;-63
2021/04/30 07:53:05;;;;;;;2.20;1.27;;;;;;;;;;4995856;28;20089;-63
2021/04/30 07:55:33;;;;;;;4.22;1.50;;;;;;;;;;4995372;28;20546;-62
2021/04/30 07:58:00;;;;;;;3.70;1.27;;;;;;;;;;4995828;28;20089;-62
2021/04/30 08:00:28;;;;;;;1.63;1.00;;;;;;;;;;4995700;28;20026;-62
2021/04/30 08:02:55;;;;;;;3.58;1.13;;;;;;;;;;4995884;28;20097;-63
2021/04/30 08:05:23;;;;;;;3.45;1.30;;;;;;;;;;4995762;28;20073;-63
2021/04/30 08:07:51;;;;;;;2.72;1.20;;;;;;;;;;4995599;28;20030;-63
2021/04/30 08:10:18;;;;;;;3.33;1.15;;;;;;;;;;4995376;28;20018;-63
2021/04/30 08:12:45;;;;;;;4.65;1.33;;;;;;;;;;4995495;28;20438;-62
2021/04/30 08:15:13;;;;;;;1.85;1.13;;;;;;;;;;4995559;28;20137;-62
2021/04/30 08:17:40;;;;;;;3.28;1.30;;;;;;;;;;4994745;28;20038;-63
2021/04/30 08:20:08;;;;;;;4.15;1.20;;;;;;;;;;4977288;28;20026;-62
2021/04/30 08:22:35;;;;;;;4.05;1.40;;;;;;;;;;4995348;28;20418;-62
2021/04/30 08:25:03;;;;;;;6.95;1.35;;;;;;;;;;4995175;28;20022;-63
2021/04/30 08:27:30;;;;;;;3.67;0.90;;;;;;;;;;4987177;28;20034;-62
2021/04/30 08:29:57;;;;;;;1.70;0.95;;;;;;;;;;4977802;28;20138;-63
2021/04/30 08:32:24;;;;;;;2.70;1.30;;;;;;;;;;4995093;28;20050;-62
2021/04/30 08:34:51;;;;;;;3.00;1.02;;;;;;;;;;4995000;28;20105;-62
2021/04/30 08:37:19;;;;;;;2.88;1.45;;;;;;;;;;4995035;28;20041;-62
2021/04/30 08:39:46;;;;;;;2.83;1.10;;;;;;;;;;4977618;28;20033;-63
2021/04/30 08:42:16;;;;;;;4.45;1.30;;;;;;;;;;4994942;28;20033;-61
2021/04/30 08:44:43;;;;;;;4.97;1.00;;;;;;;;;;4994979;28;20026;-62
2021/04/30 08:47:15;;;;;;;2.50;1.30;;;;;;;;;;4994727;28;20034;-62
2021/04/30 08:49:43;;;;;;;2.38;1.20;;;;;;;;;;4994932;28;20027;-62
2021/04/30 08:52:11;;;;;;;3.50;1.23;;;;;;;;;;4994579;28;20050;-62
2021/04/30 08:54:38;;;;;;;3.53;1.20;;;;;;;;;;4994884;28;20018;-62
2021/04/30 08:57:09;;;;;;;4.20;1.30;;;;;;;;;;5204836;23;20052;-62
2021/04/30 08:59:36;;;;;;;4.38;1.40;;;;;;;;;;5093976;28;20027;-62
2021/04/30 09:02:04;;;;;;;2.95;1.23;;;;;;;;;;5093988;28;20077;-62
2021/04/30 09:04:34;;;;;;;3.03;1.13;;;;;;;;;;5094058;28;20020;-62
2021/04/30 09:07:20;;;;;;;2.70;1.30;;;;;;;;;;5094010;28;20016;-62
2021/04/30 09:10:00;;;;;;;2.65;1.30;;;;;;;;;;5094039;28;20103;-61
2021/04/30 09:12:28;;;;;;;3.60;1.50;;;;;;;;;;5093790;28;20103;-62
2021/04/30 09:14:56;;;;;;;3.97;1.27;;;;;;;;;;5093771;28;20051;-62
2021/04/30 09:17:23;;;;;;;6.53;1.30;;;;;;;;;;5093802;28;20043;-62
2021/04/30 09:19:51;;;;;;;4.95;1.25;;;;;;;;;;5093743;28;20024;-62
2021/04/30 09:22:21;;;;;;;1.90;1.00;;;;;;;;;;5093549;28;20028;-61
2021/04/30 09:25:01;;;;;;;5.90;1.60;;;;;;;;;;5093704;28;20020;-62
2021/04/30 09:27:32;;;;;;;2.58;1.30;;;;;;;;;;5093959;28;20080;-62
2021/04/30 09:30:19;;;;;;;2.60;1.58;;;;;;;;;;5093421;28;20028;-62
2021/04/30 09:33:04;;;;;;;3.63;1.38;;;;;;;;;;5076876;28;20531;-62
2021/04/30 09:35:31;;;;;;;2.65;1.15;;;;;;;;;;5093503;28;20474;-62
2021/04/30 09:37:59;;;;;;;2.67;1.33;;;;;;;;;;5093443;28;20035;-62
2021/04/30 09:40:26;;;;;;;3.72;1.35;;;;;;;;;;5093266;28;20028;-62
2021/04/30 09:43:06;;;;;;;3.67;1.10;;;;;;;;;;5093401;28;20024;-61
2021/04/30 09:45:34;;;;;;;4.93;1.10;;;;;;;;;;5092754;28;20073;-62
2021/04/30 09:48:05;;;;;;;10.25;1.40;;;;;;;;;;5092717;28;20187;-63
2021/04/30 09:50:33;;;;;;;52.95;3.75;;;;;;;;;;5091961;28;20028;-62
2021/04/30 09:53:02;;;;;;;17.63;1.88;;;;;;;;;;5087591;28;20028;-62
2021/04/30 09:55:49;;;;;;;4.97;1.40;;;;;;;;;;5080745;28;20024;-60
2021/04/30 09:58:20;;;;;;;9.05;1.58;;;;;;;;;;5069695;28;20119;-62
2021/04/30 10:00:56;;;;;;;8.00;1.38;;;;;;;;;;5072412;28;20016;-63
2021/04/30 10:03:24;;;;;;;3.65;1.30;;;;;;;;;;5072293;28;20028;-61
2021/04/30 10:06:18;;;;;;;3.05;1.30;;;;;;;;;;5072011;28;20024;-63
2021/04/30 10:09:02;;;;;;;7.88;1.33;;;;;;;;;;5071003;28;20029;-63
2021/04/30 10:11:31;;;;;;;6.18;1.23;;;;;;;;;;5071750;28;20028;-63
2021/04/30 10:13:58;;;;;;;5.10;1.27;;;;;;;;;;5071900;28;20476;-62
2021/04/30 10:16:25;;;;;;;3.70;1.50;;;;;;;;;;5071740;28;20083;-61
2021/04/30 10:18:52;;;;;;;3.65;0.93;;;;;;;;;;5071652;28;20028;-62
2021/04/30 10:21:20;;;;;;;2.90;1.17;;;;;;;;;;5069420;28;20093;-65
2021/04/30 10:23:50;;;;;;;3.05;1.23;;;;;;;;;;5071636;28;20031;-64
2021/04/30 10:26:21;;;;;;;5.60;1.27;;;;;;;;;;5072210;28;20048;-64
2021/04/30 10:28:53;;;;;;;3.72;1.33;;;;;;;;;;5072128;28;20036;-61
2021/04/30 10:31:28;;;;;;;5.97;1.75;;;;;;;;;;5069612;28;20060;-64
2021/04/30 10:33:58;;;;;;;5.38;1.23;;;;;;;;;;5068432;28;20025;-62
2021/04/30 10:36:31;;;;;;;7.05;1.38;;;;;;;;;;5058055;28;20037;-63
2021/04/30 10:38:59;;;;;;;5.10;1.23;;;;;;;;;;5052284;28;20025;-62
2021/04/30 10:41:35;;;;;;;6.07;1.70;;;;;;;;;;5059256;28;20021;-64
2021/04/30 10:44:11;;;;;;;7.93;1.30;;;;;;;;;;5071752;28;20017;-63
2021/04/30 10:46:38;;;;;;;2.67;1.25;;;;;;;;;;5072261;28;20109;-68
2021/04/30 10:49:06;;;;;;;4.28;1.23;;;;;;;;;;5072371;28;20029;-68
2021/04/30 10:51:37;;;;;;;5.35;1.38;;;;;;;;;;5072721;28;20021;-65
2021/04/30 10:54:27;;;;;;;4.68;1.33;;;;;;;;;;5072337;28;20357;-63
2021/04/30 10:56:59;;;;;;;2.88;1.10;;;;;;;;;;5058628;28;20067;-67
2021/04/30 10:59:27;;;;;;;7.35;1.55;;;;;;;;;;5072294;28;20020;-67
2021/04/30 11:02:12;;;;;;;4.80;1.35;;;;;;;;;;5072374;28;20480;-66
2021/04/30 11:04:40;;;;;;;3.15;1.30;;;;;;;;;;5071483;28;20107;-64
2021/04/30 11:07:15;;;;;;;3.58;1.13;;;;;;;;;;5072241;28;20046;-66
2021/04/30 11:09:42;;;;;;;6.18;1.45;;;;;;;;;;5072401;28;20017;-61
2021/04/30 11:12:25;;;;;;;6.72;1.40;;;;;;;;;;5072087;28;20375;-65
2021/04/30 11:15:10;;;;;;;159.75;13.90;;;;;;;;;;5072246;28;20095;-66
2021/04/30 11:17:47;;;;;;;82.88;7.82;;;;;;;;;;5072172;28;20079;-65
2021/04/30 11:20:19;;;;;;;78.85;6.30;;;;;;;;;;5072539;28;20032;-66
2021/04/30 11:23:04;;;;;;;52.70;5.10;;;;;;;;;;5072011;28;20414;-65
2021/04/30 11:25:31;;;;;;;53.00;6.43;;;;;;;;;;5055804;28;20106;-68
2021/04/30 11:27:59;;;;;;;46.10;6.45;;;;;;;;;;5071754;28;20507;-62
2021/04/30 11:30:26;;;;;;;43.45;6.43;;;;;;;;;;5072385;28;20024;-62
2021/04/30 11:32:54;;;;;;;53.92;6.95;;;;;;;;;;5072056;28;20044;-66
2021/04/30 11:35:22;;;;;;;47.13;6.80;;;;;;;;;;5072087;28;20088;-65
2021/04/30 11:37:49;;;;;;;39.78;6.57;;;;;;;;;;5071595;28;20098;-64
2021/04/30 11:40:17;;;;;;;27.25;5.15;;;;;;;;;;5071654;28;20096;-65
2021/04/30 11:42:45;;;;;;;50.78;4.47;;;;;;;;;;5067829;28;20037;-65
2021/04/30 11:45:12;;;;;;;89.20;10.88;;;;;;;;;;5051611;28;20021;-65
2021/04/30 11:47:40;;;;;;;106.63;12.30;;;;;;;;;;5071495;28;20013;-64
2021/04/30 11:50:11;;;;;;;72.20;9.48;;;;;;;;;;5071460;28;20013;-62
2021/04/30 11:52:49;;;;;;;46.60;6.65;;;;;;;;;;5072110;28;20601;-61
2021/04/30 11:55:20;;;;;;;57.10;7.13;;;;;;;;;;5056866;28;20442;-63
2021/04/30 11:58:05;;;;;;;111.25;12.68;;;;;;;;;;5069314;28;20044;-63
2021/04/30 12:00:33;;;;;;;54.45;9.95;;;;;;;;;;5073382;28;20422;-62
2021/04/30 12:03:01;;;;;;;72.72;8.88;;;;;;;;;;5074649;28;20024;-63
2021/04/30 12:05:28;;;;;;;78.70;9.00;;;;;;;;;;5074411;28;20408;-63
2021/04/30 12:07:56;;;;;;;55.80;8.02;;;;;;;;;;5074432;28;20024;-64
2021/04/30 12:10:30;;;;;;;58.33;8.20;;;;;;;;;;5070922;28;20024;-62
2021/04/30 12:12:57;;;;;;;43.38;6.15;;;;;;;;;;5056197;28;20388;-67
2021/04/30 12:15:37;;;;;;;37.78;5.45;;;;;;;;;;5073627;28;20027;-68
2021/04/30 12:18:04;;;;;;;14.23;2.65;;;;;;;;;;5070902;28;20044;-69
2021/04/30 12:20:33;;;;;;;10.30;2.47;;;;;;;;;;5073099;28;20036;-64
2021/04/30 12:23:00;;;;;;;8.10;2.20;;;;;;;;;;5074555;28;20021;-66
2021/04/30 12:25:27;;;;;;;8.63;2.10;;;;;;;;;;5073948;28;20047;-62
2021/04/30 12:27:56;;;;;;;13.32;2.63;;;;;;;;;;5066217;28;20471;-68
2021/04/30 12:30:30;;;;;;;11.45;2.83;;;;;;;;;;5071596;28;20464;-61
2021/04/30 12:32:58;;;;;;;15.95;2.33;;;;;;;;;;5047527;28;20478;-65
2021/04/30 12:35:26;;;;;;;14.07;2.53;;;;;;;;;;5069964;28;20361;-63
2021/04/30 12:37:53;;;;;;;10.30;2.55;;;;;;;;;;5072454;28;20047;-61
2021/04/30 12:40:30;;;;;;;8.55;2.55;;;;;;;;;;5073335;28;20095;-60
2021/04/30 12:42:59;;;;;;;49.15;4.75;;;;;;;;;;5068708;28;20020;-65
2021/04/30 12:45:26;;;;;;;51.80;5.07;;;;;;;;;;5072540;28;20029;-65
2021/04/30 12:47:54;;;;;;;49.03;5.05;;;;;;;;;;5072462;28;20041;-62
2021/04/30 12:50:22;;;;;;;41.42;4.38;;;;;;;;;;5072847;28;20020;-69
2021/04/30 12:52:50;;;;;;;59.22;5.32;;;;;;;;;;5072842;28;20021;-60
2021/04/30 12:55:28;;;;;;;39.65;3.83;;;;;;;;;;5070124;28;20056;-64
2021/04/30 12:58:12;;;;;;;40.10;4.55;;;;;;;;;;5072230;28;20048;-61
2021/04/30 13:00:58;;;;;;;56.97;6.00;;;;;;;;;;5070502;28;20031;-66
2021/04/30 13:03:32;;;;;;;48.30;4.82;;;;;;;;;;5072502;28;20102;-65
2021/04/30 13:06:00;;;;;;;35.38;4.65;;;;;;;;;;5071236;28;20024;-65
2021/04/30 13:08:27;;;;;;;24.73;3.55;;;;;;;;;;5071589;28;20012;-68
2021/04/30 13:11:02;;;;;;;30.65;4.50;;;;;;;;;;5072563;28;20476;-61
2021/04/30 13:13:29;;;;;;;25.58;4.00;;;;;;;;;;5072696;28;20535;-63
2021/04/30 13:15:58;;;;;;;25.45;3.97;;;;;;;;;;5073195;28;20020;-63
2021/04/30 13:18:35;;;;;;;16.25;2.97;;;;;;;;;;5070249;28;20060;-66
2021/04/30 13:21:02;;;;;;;19.67;3.40;;;;;;;;;;5054524;28;20451;-67
2021/04/30 13:23:38;;;;;;;34.80;3.28;;;;;;;;;;5071460;28;20686;-60
2021/04/30 13:26:24;;;;;;;26.30;3.55;;;;;;;;;;5072631;28;20033;-62
2021/04/30 13:29:11;;;;;;;18.88;2.60;;;;;;;;;;5072080;28;20035;-65
2021/04/30 13:31:38;;;;;;;8.95;2.70;;;;;;;;;;5070684;28;20025;-66
2021/04/30 13:34:08;;;;;;;13.05;2.60;;;;;;;;;;5071848;28;20507;-70
2021/04/30 13:36:49;;;;;;;8.85;1.75;;;;;;;;;;5072464;28;20073;-71
2021/04/30 13:39:16;;;;;;;9.80;2.50;;;;;;;;;;5054037;28;20064;-63
2021/04/30 13:41:43;;;;;;;19.33;2.95;;;;;;;;;;5070902;28;20141;-64
2021/04/30 13:44:17;;;;;;;12.15;2.25;;;;;;;;;;5071300;28;20036;-68
2021/04/30 13:46:48;;;;;;;14.82;2.45;;;;;;;;;;5051120;28;20029;-65
2021/04/30 13:49:15;;;;;;;13.23;2.92;;;;;;;;;;5071635;28;20048;-65
2021/04/30 13:51:42;;;;;;;12.25;2.60;;;;;;;;;;5070853;28;20050;-66
2021/04/30 13:54:09;;;;;;;14.82;2.75;;;;;;;;;;5069605;28;20463;-64
2021/04/30 13:56:37;;;;;;;16.55;3.22;;;;;;;;;;5070050;28;20053;-67
2021/04/30 13:59:05;;;;;;;12.27;2.72;;;;;;;;;;5054098;28;20086;-62
2021/04/30 14:01:33;;;;;;;11.27;2.60;;;;;;;;;;5070965;28;20127;-64
2021/04/30 14:04:00;;;;;;;20.17;2.65;;;;;;;;;;5071812;28;20036;-62
2021/04/30 14:06:27;;;;;;;8.75;2.42;;;;;;;;;;5068451;28;20139;-64
2021/04/30 14:08:54;;;;;;;11.18;2.47;;;;;;;;;;5069345;28;20036;-63
2021/04/30 14:11:22;;;;;;;9.60;2.00;;;;;;;;;;5071359;28;20115;-61
2021/04/30 14:13:49;;;;;;;14.43;2.13;;;;;;;;;;5070668;28;20021;-62
2021/04/30 14:16:16;;;;;;;10.70;2.47;;;;;;;;;;5070354;28;20135;-61
2021/04/30 14:18:43;;;;;;;8.93;2.00;;;;;;;;;;5069060;28;20032;-63
2021/04/30 14:21:10;;;;;;;13.20;2.50;;;;;;;;;;5053762;28;20408;-62
2021/04/30 14:23:37;;;;;;;11.05;2.65;;;;;;;;;;5069447;28;20295;-63
2021/04/30 14:26:04;;;;;;;14.68;2.47;;;;;;;;;;5070913;28;20492;-61
2021/04/30 14:28:32;;;;;;;14.63;2.30;;;;;;;;;;5054810;28;20046;-61
2021/04/30 14:30:59;;;;;;;21.33;2.40;;;;;;;;;;5074205;28;20021;-64
2021/04/30 14:33:26;;;;;;;8.63;1.95;;;;;;;;;;5068515;28;20021;-65
2021/04/30 14:35:53;;;;;;;23.98;3.05;;;;;;;;;;5071840;28;20095;-64
2021/04/30 14:38:20;;;;;;;17.45;3.03;;;;;;;;;;5072091;28;20086;-65
2021/04/30 14:40:47;;;;;;;15.75;2.40;;;;;;;;;;5068607;28;20081;-62
2021/04/30 14:43:14;;;;;;;12.52;2.38;;;;;;;;;;5069414;28;20406;-59
2021/04/30 14:45:42;;;;;;;15.60;2.30;;;;;;;;;;5054265;28;20379;-61
2021/04/30 14:48:09;;;;;;;14.98;2.30;;;;;;;;;;5071259;28;20071;-67